createdAt,value
2023-03-06T00:00:55.114Z,10.00
2023-03-06T00:01:59.753Z,11.85
2023-03-06T00:03:04.064Z,9.52
2023-03-06T00:04:08.526Z,9.92
2023-03-06T00:05:10.817Z,11.15
2023-03-06T00:06:13.968Z,10.31
2023-03-06T00:07:16.238Z,10.41
2023-03-06T00:08:19.341Z,13.42
2023-03-06T00:09:21.449Z,11.60
2023-03-06T00:10:26.587Z,11.19
2023-03-06T00:11:28.740Z,13.10
2023-03-06T00:12:31.979Z,13.59
2023-03-06T00:13:35.146Z,13.68
2023-03-06T00:14:37.399Z,13.47
2023-03-06T00:15:40.791Z,13.66
2023-03-06T00:16:43.205Z,15.09
2023-03-06T00:17:46.493Z,13.25
2023-03-06T00:18:50.085Z,13.75
2023-03-06T00:19:53.331Z,14.78
2023-03-06T00:20:55.572Z,13.04
2023-03-06T00:21:58.932Z,12.59
2023-03-06T00:23:01.131Z,14.71
2023-03-06T00:24:04.374Z,13.29
2023-03-06T00:25:08.432Z,14.97
2023-03-06T00:26:12.180Z,13.71
2023-03-06T00:27:14.327Z,13.32
2023-03-06T00:28:17.761Z,16.93
2023-03-06T00:29:19.968Z,17.07
2023-03-06T00:30:25.421Z,16.38
2023-03-06T00:31:27.671Z,17.04
2023-03-06T00:32:31.009Z,16.98
2023-03-06T00:33:33.221Z,16.44
2023-03-06T00:34:37.706Z,16.27
2023-03-06T00:35:41.276Z,15.60
2023-03-06T00:36:44.407Z,16.01
2023-03-06T00:37:46.773Z,14.61
2023-03-06T00:38:49.993Z,14.46
2023-03-06T00:39:52.317Z,14.58
2023-03-06T00:40:55.483Z,14.72
2023-03-06T00:41:57.665Z,16.85
2023-03-06T00:43:00.829Z,17.11
2023-03-06T00:44:02.998Z,16.52
2023-03-06T00:45:07.746Z,15.86
2023-03-06T00:46:11.090Z,14.84
2023-03-06T00:47:17.075Z,14.02
2023-03-06T00:48:20.219Z,13.68
2023-03-06T00:49:22.359Z,14.69
2023-03-06T00:50:26.932Z,13.91
2023-03-06T00:51:29.218Z,14.13
2023-03-06T00:52:32.460Z,15.55
2023-03-06T00:53:34.652Z,17.34
2023-03-06T00:54:37.820Z,15.05
2023-03-06T00:55:40.012Z,14.15
2023-03-06T00:56:43.147Z,13.78
2023-03-06T00:57:45.270Z,16.78
2023-03-06T00:58:48.460Z,18.15
2023-03-06T00:59:50.570Z,17.02
2023-03-06T01:00:53.975Z,15.50
2023-03-06T01:01:56.599Z,14.31
2023-03-06T01:02:59.801Z,15.58
2023-03-06T01:04:02.060Z,17.43
2023-03-06T01:05:05.805Z,17.90
2023-03-06T01:06:09.318Z,17.96
2023-03-06T01:07:12.453Z,18.51
2023-03-06T01:08:14.594Z,14.92
2023-03-06T01:09:17.841Z,16.29
2023-03-06T01:10:20.392Z,14.61
2023-03-06T01:11:23.572Z,16.28
2023-03-06T01:12:25.727Z,16.58
2023-03-06T01:13:29.269Z,16.73
2023-03-06T01:14:32.177Z,16.90
2023-03-06T01:15:35.323Z,15.07
2023-03-06T01:16:37.498Z,12.52
2023-03-06T01:17:41.063Z,13.45
2023-03-06T01:18:43.619Z,12.03
2023-03-06T01:19:46.796Z,16.00
2023-03-06T01:20:49.310Z,15.50
2023-03-06T01:21:53.967Z,15.84
2023-03-06T01:22:56.678Z,17.23
2023-03-06T01:23:59.822Z,17.36
2023-03-06T01:25:01.988Z,15.60
2023-03-06T01:26:06.074Z,16.64
2023-03-06T01:27:08.344Z,16.15
2023-03-06T01:28:11.424Z,17.77
2023-03-06T01:29:13.604Z,16.27
2023-03-06T01:30:17.266Z,15.65
2023-03-06T01:31:19.557Z,14.66
2023-03-06T01:32:22.900Z,14.45
2023-03-06T01:33:25.072Z,14.84
2023-03-06T01:34:28.252Z,15.87
2023-03-06T01:35:30.435Z,16.49
2023-03-06T01:36:33.585Z,15.68
2023-03-06T01:37:37.734Z,15.78
2023-03-06T01:38:40.864Z,14.70
2023-03-06T01:39:43.140Z,15.51
2023-03-06T01:40:46.804Z,14.04
2023-03-06T01:41:48.902Z,16.07
2023-03-06T01:42:52.651Z,17.24
2023-03-06T01:43:54.803Z,17.17
2023-03-06T01:45:00.202Z,15.94
2023-03-06T01:46:25.541Z,17.27
2023-03-06T01:47:29.142Z,17.15
2023-03-06T01:48:31.678Z,17.15
2023-03-06T01:49:39.671Z,18.72
2023-03-06T01:50:42.169Z,14.97
2023-03-06T01:51:52.568Z,12.90
2023-03-06T01:52:59.548Z,13.81
2023-03-06T01:54:09.991Z,14.53
2023-03-06T01:55:19.029Z,14.80
2023-03-06T01:56:22.558Z,13.73
2023-03-06T01:57:30.236Z,15.07
2023-03-06T01:58:34.024Z,15.39
2023-03-06T01:59:40.738Z,16.61
2023-03-06T02:00:43.835Z,14.40
2023-03-06T02:01:47.358Z,12.38
2023-03-06T02:02:54.944Z,10.62
2023-03-06T02:03:57.377Z,13.45
2023-03-06T02:05:05.200Z,13.75
2023-03-06T02:06:07.971Z,15.36
2023-03-06T02:07:12.593Z,15.60
2023-03-06T02:08:19.507Z,16.91
2023-03-06T02:09:22.894Z,16.03
2023-03-06T02:10:25.597Z,13.87
2023-03-06T02:11:29.231Z,17.89
2023-03-06T02:12:31.908Z,18.58
2023-03-06T02:13:36.377Z,17.59
2023-03-06T02:14:41.715Z,16.03
2023-03-06T02:15:43.896Z,14.32
2023-03-06T02:16:47.348Z,16.29
2023-03-06T02:17:51.871Z,17.57
2023-03-06T02:18:55.601Z,16.64
2023-03-06T02:20:06.116Z,17.73
2023-03-06T02:21:11.681Z,16.42
2023-03-06T02:22:13.850Z,16.88
2023-03-06T02:23:31.492Z,17.49
2023-03-06T02:24:45.353Z,16.80
2023-03-06T02:25:52.252Z,14.48
2023-03-06T02:26:56.664Z,17.39
2023-03-06T02:27:59.820Z,16.83
2023-03-06T02:29:02.231Z,13.82
2023-03-06T02:30:08.712Z,13.25
2023-03-06T02:31:21.828Z,12.75
2023-03-06T02:32:24.981Z,14.52
2023-03-06T02:33:29.471Z,17.95
2023-03-06T02:34:55.474Z,15.62
2023-03-06T02:36:00.576Z,18.14
2023-03-06T02:37:09.710Z,16.22
2023-03-06T02:38:16.145Z,15.51
2023-03-06T02:39:24.878Z,16.49
2023-03-06T02:40:27.133Z,17.07
2023-03-06T02:41:32.047Z,18.51
2023-03-06T02:42:34.253Z,17.22
2023-03-06T02:43:44.481Z,16.63
2023-03-06T02:44:47.219Z,16.21
2023-03-06T02:45:52.692Z,15.46
2023-03-06T02:46:55.232Z,17.50
2023-03-06T02:47:58.473Z,15.78
2023-03-06T02:49:00.566Z,15.51
2023-03-06T02:50:03.771Z,15.22
2023-03-06T02:51:06.179Z,15.67
2023-03-06T02:52:09.622Z,18.28
2023-03-06T02:53:14.427Z,15.50
2023-03-06T02:54:18.377Z,16.85
2023-03-06T02:55:20.536Z,15.16
2023-03-06T02:56:23.805Z,16.02
2023-03-06T02:57:27.360Z,15.71
2023-03-06T02:58:30.450Z,17.78
2023-03-06T02:59:32.524Z,20.23
2023-03-06T03:00:35.980Z,20.15
2023-03-06T03:01:38.251Z,20.86
2023-03-06T03:02:41.733Z,19.15
2023-03-06T03:03:44.080Z,17.74
2023-03-06T03:04:47.274Z,16.59
2023-03-06T03:05:49.444Z,13.36
2023-03-06T03:06:52.606Z,15.85
2023-03-06T03:07:54.809Z,16.64
2023-03-06T03:08:57.951Z,16.18
2023-03-06T03:10:00.128Z,16.94
2023-03-06T03:11:04.448Z,18.49
2023-03-06T03:12:07.556Z,17.71
2023-03-06T03:13:12.102Z,15.32
2023-03-06T03:14:14.306Z,16.73
2023-03-06T03:15:17.581Z,17.04
2023-03-06T03:16:19.834Z,16.67
2023-03-06T03:17:23.100Z,16.62
2023-03-06T03:18:25.201Z,17.43
2023-03-06T03:19:28.306Z,17.67
2023-03-06T03:20:30.416Z,16.91
2023-03-06T03:21:33.902Z,17.67
2023-03-06T03:22:36.291Z,16.88
2023-03-06T03:23:39.611Z,16.08
2023-03-06T03:24:42.437Z,16.94
2023-03-06T03:25:45.703Z,15.96
2023-03-06T03:26:47.824Z,17.64
2023-03-06T03:27:51.268Z,17.50
2023-03-06T03:28:54.750Z,15.93
2023-03-06T03:29:58.542Z,17.98
2023-03-06T03:31:03.502Z,16.66
2023-03-06T03:32:07.939Z,16.67
2023-03-06T03:33:11.259Z,18.62
2023-03-06T03:34:14.552Z,17.72
2023-03-06T03:35:16.744Z,17.53
2023-03-06T03:36:19.936Z,16.78
2023-03-06T03:37:22.398Z,19.05
2023-03-06T03:38:25.817Z,17.44
2023-03-06T03:39:28.037Z,18.48
2023-03-06T03:40:31.332Z,18.36
2023-03-06T03:41:33.944Z,19.07
2023-03-06T03:42:37.060Z,18.06
2023-03-06T03:43:39.316Z,17.61
2023-03-06T03:44:43.829Z,17.30
2023-03-06T03:45:45.970Z,18.13
2023-03-06T03:46:49.240Z,20.36
2023-03-06T03:47:51.513Z,19.29
2023-03-06T03:48:54.745Z,17.07
2023-03-06T03:49:56.931Z,18.90
2023-03-06T03:51:06.585Z,18.89
2023-03-06T03:52:08.770Z,16.45
2023-03-06T03:53:11.902Z,15.77
2023-03-06T03:54:14.044Z,16.51
2023-03-06T03:55:17.537Z,16.30
2023-03-06T03:56:19.874Z,18.24
2023-03-06T03:57:22.976Z,17.07
2023-03-06T03:58:25.094Z,18.30
2023-03-06T03:59:28.304Z,18.70
2023-03-06T04:00:32.415Z,17.98
2023-03-06T04:01:37.204Z,18.57
2023-03-06T04:02:41.452Z,18.03
2023-03-06T04:03:44.859Z,18.40
2023-03-06T04:04:46.996Z,19.83
2023-03-06T04:05:50.160Z,17.86
2023-03-06T04:06:52.321Z,18.72
2023-03-06T04:07:55.437Z,17.97
2023-03-06T04:08:57.770Z,15.36
2023-03-06T04:10:00.868Z,13.95
2023-03-06T04:11:03.350Z,17.12
2023-03-06T04:12:07.010Z,15.40
2023-03-06T04:13:10.125Z,18.60
2023-03-06T04:14:13.418Z,16.81
2023-03-06T04:15:15.687Z,17.90
2023-03-06T04:16:20.314Z,18.38
2023-03-06T04:17:22.530Z,17.85
2023-03-06T04:18:26.252Z,17.18
2023-03-06T04:19:28.407Z,17.71
2023-03-06T04:20:31.680Z,15.90
2023-03-06T04:21:33.801Z,15.00
2023-03-06T04:22:36.883Z,15.21
2023-03-06T04:23:39.115Z,14.37
2023-03-06T04:24:42.234Z,12.79
2023-03-06T04:25:44.575Z,20.38
2023-03-06T04:26:47.719Z,19.04
2023-03-06T04:27:49.866Z,17.89
2023-03-06T04:28:53.151Z,16.26
2023-03-06T04:29:56.446Z,14.87
2023-03-06T04:30:59.666Z,14.15
2023-03-06T04:32:03.352Z,13.51
2023-03-06T04:33:07.037Z,14.63
2023-03-06T04:34:09.195Z,15.40
2023-03-06T04:35:12.575Z,16.32
2023-03-06T04:36:28.059Z,16.72
2023-03-06T04:37:31.117Z,16.44
2023-03-06T04:38:34.240Z,16.23
2023-03-06T04:39:36.522Z,15.61
2023-03-06T04:40:39.671Z,16.59
2023-03-06T04:41:42.391Z,15.98
2023-03-06T04:42:45.570Z,16.01
2023-03-06T04:43:47.705Z,17.52
2023-03-06T04:44:50.865Z,15.61
2023-03-06T04:45:53.010Z,14.58
2023-03-06T04:46:56.170Z,14.50
2023-03-06T04:47:59.756Z,16.70
2023-03-06T04:49:03.828Z,13.84
2023-03-06T04:50:08.052Z,14.14
2023-03-06T04:51:13.184Z,13.89
2023-03-06T04:52:15.344Z,15.85
2023-03-06T04:53:19.634Z,19.18
2023-03-06T04:54:21.966Z,16.65
2023-03-06T04:55:25.069Z,19.67
2023-03-06T04:56:27.376Z,17.23
2023-03-06T04:57:30.541Z,14.11
2023-03-06T04:58:32.702Z,16.17
2023-03-06T04:59:38.119Z,17.35
2023-03-06T05:00:41.373Z,19.86
2023-03-06T05:01:44.554Z,18.02
2023-03-06T05:02:48.174Z,17.91
2023-03-06T05:03:52.808Z,17.27
2023-03-06T05:04:55.017Z,19.29
2023-03-06T05:05:58.207Z,17.88
2023-03-06T05:07:00.351Z,18.34
2023-03-06T05:08:03.506Z,16.97
2023-03-06T05:09:05.743Z,15.43
2023-03-06T05:10:12.772Z,15.46
2023-03-06T05:11:14.945Z,17.03
2023-03-06T05:12:18.119Z,18.99
2023-03-06T05:13:20.248Z,16.81
2023-03-06T05:14:23.459Z,18.36
2023-03-06T05:15:25.626Z,17.36
2023-03-06T05:16:28.961Z,15.32
2023-03-06T05:17:31.649Z,15.76
2023-03-06T05:18:36.288Z,16.06
2023-03-06T05:19:40.064Z,19.05
2023-03-06T05:20:43.149Z,17.01
2023-03-06T05:21:45.300Z,15.66
2023-03-06T05:22:48.422Z,16.38
2023-03-06T05:23:50.566Z,16.24
2023-03-06T05:24:53.905Z,15.98
2023-03-06T05:25:56.220Z,15.72
2023-03-06T05:26:59.328Z,16.76
2023-03-06T05:28:01.508Z,18.10
2023-03-06T05:29:04.707Z,18.28
2023-03-06T05:30:08.460Z,18.04
2023-03-06T05:31:11.602Z,17.05
2023-03-06T05:32:14.196Z,16.47
2023-03-06T05:33:17.452Z,16.60
2023-03-06T05:34:19.610Z,17.75
2023-03-06T05:35:25.345Z,16.13
2023-03-06T05:36:27.508Z,14.17
2023-03-06T05:37:30.782Z,12.80
2023-03-06T05:38:33.103Z,14.20
2023-03-06T05:39:36.291Z,15.89
2023-03-06T05:40:40.747Z,14.12
2023-03-06T05:41:43.871Z,15.72
2023-03-06T05:42:46.294Z,15.66
2023-03-06T05:43:49.384Z,16.50
2023-03-06T05:44:51.749Z,16.46
2023-03-06T05:46:02.984Z,16.06
2023-03-06T05:47:05.656Z,14.79
2023-03-06T05:48:09.364Z,13.95
2023-03-06T05:49:11.457Z,14.33
2023-03-06T05:50:15.061Z,15.56
2023-03-06T05:51:18.879Z,16.11
2023-03-06T05:52:22.000Z,16.58
2023-03-06T05:53:24.292Z,17.15
2023-03-06T05:54:27.421Z,17.08
2023-03-06T05:55:29.776Z,16.39
2023-03-06T05:56:33.072Z,14.45
2023-03-06T05:57:35.219Z,14.78
2023-03-06T05:58:39.210Z,15.95
2023-03-06T05:59:41.363Z,15.25
2023-03-06T06:00:44.473Z,18.03
2023-03-06T06:01:46.572Z,18.93
2023-03-06T06:02:50.110Z,17.31
2023-03-06T06:03:52.380Z,15.85
2023-03-06T06:04:55.578Z,15.46
2023-03-06T06:05:57.720Z,15.35
2023-03-06T06:07:02.648Z,16.37
2023-03-06T06:08:04.846Z,15.66
2023-03-06T06:09:08.022Z,14.83
2023-03-06T06:10:12.237Z,13.66
2023-03-06T06:11:15.816Z,15.95
2023-03-06T06:12:17.959Z,15.86
2023-03-06T06:13:21.570Z,17.72
2023-03-06T06:14:25.083Z,17.57
2023-03-06T06:15:28.955Z,17.72
2023-03-06T06:16:31.131Z,18.12
2023-03-06T06:17:34.437Z,16.48
2023-03-06T06:18:37.684Z,16.32
2023-03-06T06:19:42.366Z,14.99
2023-03-06T06:20:44.833Z,18.86
2023-03-06T06:21:49.986Z,17.25
2023-03-06T06:22:54.517Z,15.99
2023-03-06T06:23:57.643Z,16.95
2023-03-06T06:24:59.734Z,15.87
2023-03-06T06:26:03.014Z,14.76
2023-03-06T06:27:05.310Z,16.44
2023-03-06T06:28:08.664Z,17.18
2023-03-06T06:29:12.672Z,18.36
2023-03-06T06:30:16.117Z,16.70
2023-03-06T06:31:18.458Z,17.26
2023-03-06T06:32:21.642Z,15.97
2023-03-06T06:33:24.620Z,16.27
2023-03-06T06:34:29.071Z,16.08
2023-03-06T06:35:34.864Z,14.73
2023-03-06T06:36:38.462Z,16.26
2023-03-06T06:37:40.984Z,17.58
2023-03-06T06:38:45.505Z,16.62
2023-03-06T06:39:47.962Z,16.05
2023-03-06T06:41:26.928Z,14.46
2023-03-06T06:42:31.411Z,16.51
2023-03-06T06:43:37.414Z,17.29
2023-03-06T06:44:40.863Z,16.83
2023-03-06T06:45:44.170Z,14.67
2023-03-06T06:48:10.755Z,14.79
2023-03-06T06:49:14.228Z,12.23
2023-03-06T06:50:16.369Z,13.15
2023-03-06T06:51:32.587Z,13.09
2023-03-06T06:52:34.852Z,13.87
2023-03-06T06:53:37.993Z,14.16
2023-03-06T06:54:41.542Z,12.89
2023-03-06T06:55:44.641Z,15.83
2023-03-06T06:56:46.803Z,15.51
2023-03-06T06:57:50.000Z,15.40
2023-03-06T06:58:52.397Z,15.44
2023-03-06T06:59:55.524Z,17.30
2023-03-06T07:00:57.739Z,15.62
2023-03-06T07:02:00.912Z,14.54
2023-03-06T07:03:03.129Z,14.77
2023-03-06T07:04:06.296Z,14.25
2023-03-06T07:05:09.413Z,14.22
2023-03-06T07:06:12.537Z,13.87
2023-03-06T07:07:14.666Z,16.14
2023-03-06T07:08:17.872Z,14.25
2023-03-06T07:09:22.244Z,15.52
2023-03-06T07:10:26.753Z,14.48
2023-03-06T07:11:29.931Z,14.39
2023-03-06T07:12:32.961Z,14.16
2023-03-06T07:13:36.774Z,13.67
2023-03-06T07:14:41.380Z,13.11
2023-03-06T07:15:44.534Z,13.49
2023-03-06T07:16:47.690Z,13.36
2023-03-06T07:17:50.387Z,13.48
2023-03-06T07:18:53.533Z,13.90
2023-03-06T07:19:55.709Z,13.35
2023-03-06T07:21:01.282Z,13.02
2023-03-06T07:22:04.559Z,13.00
2023-03-06T07:23:09.549Z,12.23
2023-03-06T07:24:12.761Z,11.39
2023-03-06T07:25:15.003Z,12.13
2023-03-06T07:26:19.523Z,12.34
2023-03-06T07:27:23.788Z,13.28
2023-03-06T07:28:27.085Z,12.52
2023-03-06T07:29:29.586Z,12.90
2023-03-06T07:30:32.778Z,12.84
2023-03-06T07:31:35.968Z,11.99
2023-03-06T07:32:38.253Z,12.93
2023-03-06T07:33:41.392Z,13.59
2023-03-06T07:34:44.690Z,13.17
2023-03-06T07:35:47.856Z,13.33
2023-03-06T07:36:50.841Z,12.25
2023-03-06T07:37:54.450Z,13.52
2023-03-06T07:38:57.652Z,12.71
2023-03-06T07:40:00.785Z,13.12
2023-03-06T07:41:05.130Z,12.65
2023-03-06T07:42:10.946Z,12.45
2023-03-06T07:43:19.422Z,13.04
2023-03-06T07:44:22.903Z,13.42
2023-03-06T07:45:26.760Z,14.54
2023-03-06T07:46:29.333Z,13.94
2023-03-06T07:47:32.520Z,12.98
2023-03-06T07:48:37.043Z,12.86
2023-03-06T07:49:39.341Z,13.01
2023-03-06T07:50:43.322Z,12.34
2023-03-06T07:51:46.491Z,13.44
2023-03-06T07:52:50.232Z,13.28
2023-03-06T07:53:52.421Z,12.08
2023-03-06T07:54:55.627Z,12.11
2023-03-06T07:55:59.074Z,11.59
2023-03-06T07:57:01.442Z,13.13
2023-03-06T07:58:05.994Z,11.90
2023-03-06T07:59:09.135Z,12.40
2023-03-06T08:00:15.667Z,11.68
2023-03-06T08:01:23.384Z,11.85
2023-03-06T08:02:26.510Z,12.25
2023-03-06T08:03:28.710Z,12.80
2023-03-06T08:04:31.819Z,12.41
2023-03-06T08:05:34.955Z,11.87
2023-03-06T08:06:37.133Z,12.31
2023-03-06T08:07:40.216Z,10.83
2023-03-06T08:08:45.784Z,11.34
2023-03-06T08:09:48.291Z,11.47
2023-03-06T08:10:51.611Z,11.01
2023-03-06T08:11:53.793Z,11.83
2023-03-06T08:12:57.041Z,11.37
2023-03-06T08:14:01.084Z,12.22
2023-03-06T08:15:04.398Z,11.50
2023-03-06T08:16:07.478Z,11.61
2023-03-06T08:17:10.710Z,12.13
2023-03-06T08:18:14.074Z,11.93
2023-03-06T08:19:17.235Z,11.53
2023-03-06T08:20:19.519Z,11.90
2023-03-06T08:21:25.200Z,11.56
2023-03-06T08:22:27.360Z,11.29
2023-03-06T08:23:30.678Z,11.64
2023-03-06T08:24:34.828Z,11.38
2023-03-06T08:25:36.995Z,11.56
2023-03-06T08:26:40.581Z,12.33
2023-03-06T08:27:43.313Z,12.20
2023-03-06T08:28:46.837Z,12.97
2023-03-06T08:29:51.517Z,12.94
2023-03-06T08:30:53.945Z,12.93
2023-03-06T08:31:57.216Z,13.17
2023-03-06T08:33:01.376Z,12.38
2023-03-06T08:34:07.865Z,12.04
2023-03-06T08:35:11.360Z,12.04
2023-03-06T08:36:13.535Z,12.96
2023-03-06T08:37:16.829Z,11.93
2023-03-06T08:38:19.019Z,10.66
2023-03-06T08:39:23.698Z,10.13
2023-03-06T08:40:30.437Z,11.81
2023-03-06T08:41:34.662Z,11.89
2023-03-06T08:42:37.805Z,11.15
2023-03-06T08:43:40.288Z,10.68
2023-03-06T08:44:43.758Z,11.85
2023-03-06T08:45:52.285Z,12.07
2023-03-06T08:46:55.406Z,11.50
2023-03-06T08:47:57.729Z,11.20
2023-03-06T08:49:01.096Z,9.44
2023-03-06T08:50:04.816Z,9.53
2023-03-06T08:51:09.605Z,11.22
2023-03-06T08:52:12.814Z,11.02
2023-03-06T08:53:15.034Z,11.14
2023-03-06T08:54:18.157Z,11.25
2023-03-06T08:55:20.320Z,11.12
2023-03-06T08:56:26.300Z,11.03
2023-03-06T08:57:29.424Z,11.43
2023-03-06T08:58:31.913Z,11.89
2023-03-06T08:59:35.434Z,10.80
2023-03-06T09:00:38.389Z,11.05
2023-03-06T09:01:43.150Z,11.20
2023-03-06T09:02:45.334Z,10.14
2023-03-06T09:03:48.927Z,9.58
2023-03-06T09:04:51.105Z,9.97
2023-03-06T09:05:54.247Z,9.69
2023-03-06T09:06:57.420Z,9.76
2023-03-06T09:07:59.663Z,9.53
2023-03-06T09:09:04.191Z,9.07
2023-03-06T09:10:08.858Z,10.07
2023-03-06T09:11:11.420Z,8.65
2023-03-06T09:12:14.549Z,9.92
2023-03-06T09:13:16.740Z,10.96
2023-03-06T09:14:19.916Z,9.77
2023-03-06T09:15:23.850Z,10.03
2023-03-06T09:16:27.810Z,9.83
2023-03-06T09:17:32.401Z,9.22
2023-03-06T09:18:34.622Z,9.35
2023-03-06T09:19:38.369Z,9.43
2023-03-06T09:20:40.550Z,9.14
2023-03-06T09:21:43.697Z,8.52
2023-03-06T09:22:46.465Z,8.98
2023-03-06T09:23:49.690Z,9.63
2023-03-06T09:24:54.093Z,9.65
2023-03-06T09:25:58.768Z,8.47
2023-03-06T09:27:01.906Z,7.90
2023-03-06T09:28:11.460Z,8.05
2023-03-06T09:29:16.319Z,8.65
2023-03-06T09:30:20.180Z,8.58
2023-03-06T09:31:23.434Z,8.98
2023-03-06T09:32:25.627Z,7.94
2023-03-06T09:33:31.288Z,8.03
2023-03-06T09:34:34.667Z,8.61
2023-03-06T09:35:40.588Z,9.19
2023-03-06T09:36:56.474Z,8.66
2023-03-06T09:38:00.523Z,7.97
2023-03-06T09:39:03.752Z,8.58
2023-03-06T09:40:07.804Z,7.99
2023-03-06T09:41:26.289Z,7.29
2023-03-06T09:42:30.659Z,7.78
2023-03-06T09:43:36.772Z,7.14
2023-03-06T09:44:42.591Z,7.30
2023-03-06T09:45:45.718Z,7.20
2023-03-06T09:47:09.760Z,6.98
2023-03-06T09:48:16.685Z,7.17
2023-03-06T09:49:42.551Z,7.20
2023-03-06T09:50:55.525Z,6.79
2023-03-06T09:52:07.768Z,7.77
2023-03-06T09:53:41.272Z,7.46
2023-03-06T09:54:47.165Z,6.65
2023-03-06T09:55:58.257Z,6.82
2023-03-06T09:57:01.707Z,6.61
2023-03-06T09:58:12.778Z,7.37
2023-03-06T09:59:21.802Z,6.60
2023-03-06T10:00:31.821Z,6.56
2023-03-06T10:01:41.223Z,7.08
2023-03-06T10:02:49.207Z,7.68
2023-03-06T10:03:58.945Z,6.79
2023-03-06T10:05:09.383Z,6.59
2023-03-06T10:06:17.016Z,6.72
2023-03-06T10:07:23.673Z,7.20
2023-03-06T10:08:36.652Z,6.01
2023-03-06T10:09:45.263Z,7.05
2023-03-06T10:10:58.623Z,8.19
2023-03-06T10:12:08.697Z,6.30
2023-03-06T10:13:21.837Z,7.06
2023-03-06T10:14:36.422Z,7.02
2023-03-06T10:15:45.087Z,6.73
2023-03-06T10:16:48.512Z,6.92
2023-03-06T10:17:51.741Z,6.64
2023-03-06T10:18:55.433Z,6.52
2023-03-06T10:19:58.605Z,6.50
2023-03-06T10:21:18.681Z,6.65
2023-03-06T10:22:30.097Z,6.35
2023-03-06T10:23:48.788Z,6.50
2023-03-06T10:25:02.455Z,7.37
2023-03-06T10:26:17.128Z,6.99
2023-03-06T10:27:35.478Z,5.73
2023-03-06T10:28:47.540Z,5.81
2023-03-06T10:30:03.807Z,6.25
2023-03-06T10:31:15.637Z,6.50
2023-03-06T10:32:32.122Z,7.35
2023-03-06T10:33:54.258Z,5.77
2023-03-06T10:35:00.729Z,5.62
2023-03-06T10:36:05.738Z,5.46
2023-03-06T10:37:18.963Z,5.19
2023-03-06T10:38:25.577Z,5.38
2023-03-06T10:39:29.326Z,4.80
2023-03-06T10:40:47.680Z,4.79
2023-03-06T10:41:51.097Z,5.35
2023-03-06T10:43:09.514Z,7.25
2023-03-06T10:44:25.246Z,5.10
2023-03-06T10:45:27.964Z,4.77
2023-03-06T10:46:34.339Z,5.21
2023-03-06T10:47:38.538Z,5.20
2023-03-06T10:48:43.400Z,5.67
2023-03-06T10:49:58.981Z,5.34
2023-03-06T10:51:19.604Z,5.02
2023-03-06T10:52:22.945Z,5.03
2023-03-06T10:53:28.996Z,4.78
2023-03-06T10:54:36.741Z,4.74
2023-03-06T10:55:39.962Z,4.41
2023-03-06T10:56:45.227Z,5.09
2023-03-06T10:57:47.395Z,4.94
2023-03-06T10:59:07.071Z,5.14
2023-03-06T11:00:30.288Z,4.85
2023-03-06T11:01:33.608Z,4.99
2023-03-06T11:02:40.935Z,4.82
2023-03-06T11:03:44.052Z,4.54
2023-03-06T11:04:51.280Z,4.84
2023-03-06T11:06:01.865Z,5.11
2023-03-06T11:07:16.148Z,5.43
2023-03-06T11:08:21.687Z,5.23
2023-03-06T11:09:27.426Z,5.34
2023-03-06T11:10:34.077Z,5.10
2023-03-06T11:11:38.186Z,4.85
2023-03-06T11:12:42.270Z,5.00
2023-03-06T11:13:45.801Z,5.08
2023-03-06T11:14:48.029Z,4.96
2023-03-06T11:15:59.391Z,4.88
2023-03-06T11:17:02.518Z,4.00
2023-03-06T11:18:27.868Z,4.29
2023-03-06T11:19:32.729Z,3.78
2023-03-06T11:20:51.499Z,3.86
2023-03-06T11:22:03.527Z,4.54
2023-03-06T11:23:18.494Z,4.69
2023-03-06T11:24:22.000Z,4.64
2023-03-06T11:25:32.449Z,4.97
2023-03-06T11:26:42.300Z,4.59
2023-03-06T11:27:53.651Z,4.31
2023-03-06T11:29:11.715Z,4.35
2023-03-06T11:30:21.839Z,4.19
2023-03-06T11:31:30.412Z,4.34
2023-03-06T11:32:44.030Z,3.98
2023-03-06T11:33:53.487Z,4.31
2023-03-06T11:35:02.346Z,4.52
2023-03-06T11:36:16.169Z,4.78
2023-03-06T11:37:30.801Z,4.52
2023-03-06T11:38:43.928Z,4.72
2023-03-06T11:39:58.179Z,4.74
2023-03-06T11:41:07.080Z,4.46
2023-03-06T11:42:18.477Z,4.70
2023-03-06T11:43:30.982Z,4.84
2023-03-06T11:44:55.991Z,4.58
2023-03-06T11:46:08.184Z,5.44
2023-03-06T11:47:18.367Z,6.12
2023-03-06T11:48:28.366Z,5.73
2023-03-06T11:49:38.334Z,6.49
2023-03-06T11:50:45.784Z,5.80
2023-03-06T11:51:56.260Z,5.61
2023-03-06T11:53:02.301Z,5.80
2023-03-06T11:54:09.474Z,6.40
2023-03-06T11:55:17.440Z,5.58
2023-03-06T11:56:31.769Z,5.60
2023-03-06T11:57:48.644Z,6.77
2023-03-06T11:59:19.632Z,6.43
2023-03-06T12:00:37.453Z,6.20
2023-03-06T12:01:45.885Z,7.42
2023-03-06T12:03:17.127Z,7.09
2023-03-06T12:04:50.926Z,7.27
2023-03-06T12:06:03.718Z,7.11
2023-03-06T12:07:30.044Z,7.66
2023-03-06T12:08:48.238Z,7.54
2023-03-06T12:09:57.701Z,7.16
2023-03-06T12:11:13.361Z,7.39
2023-03-06T12:12:57.256Z,7.63
2023-03-06T12:14:33.342Z,7.15
2023-03-06T12:15:53.859Z,7.15
2023-03-06T12:17:19.415Z,8.22
2023-03-06T12:18:47.522Z,8.46
2023-03-06T12:20:07.824Z,7.00
2023-03-06T12:21:22.238Z,8.04
2023-03-06T12:22:53.365Z,7.65
2023-03-06T12:24:31.567Z,7.58
2023-03-06T12:25:39.898Z,7.53
2023-03-06T12:26:59.321Z,7.83
2023-03-06T12:28:17.820Z,7.98
2023-03-06T12:29:53.459Z,7.61
2023-03-06T12:31:18.705Z,7.36
2023-03-06T12:32:44.651Z,6.64
2023-03-06T12:34:02.735Z,6.71
2023-03-06T12:35:26.797Z,7.36
2023-03-06T12:36:50.196Z,6.70
2023-03-06T12:38:06.704Z,7.91
2023-03-06T12:39:22.696Z,8.64
2023-03-06T12:40:45.045Z,8.32
2023-03-06T12:42:02.481Z,8.54
2023-03-06T12:43:55.177Z,8.44
2023-03-06T12:45:22.997Z,7.86
2023-03-06T12:46:26.942Z,9.84
2023-03-06T12:47:32.518Z,9.43
2023-03-06T12:48:40.748Z,9.96
2023-03-06T12:49:48.620Z,9.91
2023-03-06T12:50:53.506Z,11.10
2023-03-06T12:51:58.606Z,13.06
2023-03-06T12:53:05.344Z,12.05
2023-03-06T12:54:10.606Z,13.51
2023-03-06T12:55:19.404Z,13.21
2023-03-06T12:56:26.758Z,13.29
2023-03-06T12:57:29.901Z,13.36
2023-03-06T12:58:52.250Z,13.65
2023-03-06T12:59:56.091Z,13.52
2023-03-06T13:01:08.469Z,13.93
2023-03-06T13:02:44.014Z,14.30
2023-03-06T13:04:14.369Z,13.83
2023-03-06T13:06:04.118Z,13.45
2023-03-06T13:07:27.830Z,12.83
2023-03-06T13:09:12.631Z,13.44
2023-03-06T13:10:23.583Z,12.08
2023-03-06T13:11:54.911Z,12.36
2023-03-06T13:13:01.230Z,12.50
2023-03-06T13:14:22.914Z,11.53
2023-03-06T13:15:38.934Z,11.85
2023-03-06T13:16:42.118Z,12.26
2023-03-06T13:17:45.731Z,11.44
2023-03-06T13:18:53.422Z,11.88
2023-03-06T13:20:27.842Z,11.53
2023-03-06T13:22:09.226Z,11.17
2023-03-06T13:23:51.902Z,12.03
2023-03-06T13:25:25.175Z,11.21
2023-03-06T13:26:58.548Z,11.65
2023-03-06T13:28:04.221Z,11.75
2023-03-06T13:29:43.955Z,10.65
2023-03-06T13:30:47.348Z,11.78
2023-03-06T13:32:18.327Z,11.92
2023-03-06T13:33:57.327Z,11.81
2023-03-06T13:34:59.629Z,11.55
2023-03-06T13:36:22.994Z,11.63
2023-03-06T13:37:49.714Z,11.98
2023-03-06T13:39:24.641Z,11.81
2023-03-06T13:40:36.105Z,10.62
2023-03-06T13:41:55.509Z,11.48
2023-03-06T13:43:22.690Z,11.93
2023-03-06T13:44:51.274Z,10.55
2023-03-06T13:45:54.615Z,11.72
2023-03-06T13:47:00.315Z,11.20
2023-03-06T13:48:24.878Z,11.35
2023-03-06T13:49:28.299Z,11.74
2023-03-06T13:50:37.664Z,11.28
2023-03-06T13:51:44.085Z,11.11
2023-03-06T13:53:05.578Z,11.83
2023-03-06T13:54:31.788Z,12.03
2023-03-06T13:55:41.977Z,12.60
2023-03-06T13:57:23.112Z,11.74
2023-03-06T13:58:54.049Z,11.69
2023-03-06T14:00:46.045Z,12.65
2023-03-06T14:02:04.993Z,12.97
2023-03-06T14:03:43.055Z,13.61
2023-03-06T14:04:55.918Z,13.39
2023-03-06T14:05:59.003Z,12.73
2023-03-06T14:07:27.164Z,13.29
2023-03-06T14:08:33.337Z,13.94
2023-03-06T14:09:42.012Z,12.90
2023-03-06T14:10:47.608Z,13.02
2023-03-06T14:11:54.918Z,12.94
2023-03-06T14:13:14.849Z,12.86
2023-03-06T14:14:24.903Z,12.32
2023-03-06T14:15:37.138Z,12.26
2023-03-06T14:16:49.671Z,12.44
2023-03-06T14:18:01.583Z,12.95
2023-03-06T14:19:19.773Z,12.66
2023-03-06T14:20:27.059Z,12.61
2023-03-06T14:21:33.796Z,12.81
2023-03-06T14:22:37.142Z,13.78
2023-03-06T14:23:43.472Z,12.51
2023-03-06T14:24:56.496Z,11.54
2023-03-06T14:26:08.656Z,10.79
2023-03-06T14:27:18.712Z,10.83
2023-03-06T14:28:27.059Z,13.51
2023-03-06T14:29:34.379Z,12.76
2023-03-06T14:30:37.846Z,12.52
2023-03-06T14:31:44.519Z,12.31